Time,TemperatureF,DewpointF,PressureIn,WindDirection,WindDirectionDegrees,WindSpeedMPH,WindSpeedGustMPH,Humidity,HourlyPrecipIn,Conditions,Clouds,dailyrainin,SoftwareType,DateUTC
2013-11-01 00:14:00,47.5,46.2,29.51,WNW,282,1.7,4.3,95,0.09,,,0.02,WUHU216HW,2013-11-01 04:14:00,
2013-11-01 00:29:00,50.9,49.5,29.50,West,271,2.6,5.8,95,0.09,,,0.04,WUHU216HW,2013-11-01 04:29:00,
2013-11-01 00:44:00,52.2,50.8,29.49,West,270,2.5,7.4,95,0.10,,,0.06,WUHU216HW,2013-11-01 04:44:00,
2013-11-01 00:59:00,52.9,51.5,29.48,West,262,3.4,7.4,95,0.08,,,0.08,WUHU216HW,2013-11-01 04:59:00,
2013-11-01 01:14:00,53.6,52.5,29.47,West,259,2.4,7.2,96,0.07,,,0.09,WUHU216HW,2013-11-01 05:14:00,
2013-11-01 01:29:00,54.7,53.6,29.46,SW,231,2.6,7.8,96,0.06,,,0.10,WUHU216HW,2013-11-01 05:29:00,
2013-11-01 01:44:00,54.9,53.7,29.45,WSW,238,2.4,6.0,96,0.06,,,0.12,WUHU216HW,2013-11-01 05:44:00,
2013-11-01 01:59:00,55.4,54.3,29.44,SW,225,3.0,10.1,96,0.05,,,0.13,WUHU216HW,2013-11-01 05:59:00,
2013-11-01 02:14:00,55.8,54.6,29.43,South,181,2.8,6.7,96,0.06,,,0.15,WUHU216HW,2013-11-01 06:14:00,
2013-11-01 02:29:00,56.0,54.8,29.42,WSW,246,2.6,6.9,96,0.06,,,0.16,WUHU216HW,2013-11-01 06:29:00,
2013-11-01 02:44:00,56.0,54.5,29.41,SSW,209,2.4,6.3,95,0.06,,,0.18,WUHU216HW,2013-11-01 06:44:00,
2013-11-01 02:59:00,56.0,54.5,29.40,SSW,192,2.3,6.0,95,0.06,,,0.19,WUHU216HW,2013-11-01 06:59:00,
2013-11-01 03:14:00,55.8,54.4,29.39,SW,224,1.5,4.0,95,0.04,,,0.19,WUHU216HW,2013-11-01 07:14:00,
2013-11-01 03:29:00,55.8,54.4,29.38,WSW,237,1.2,2.7,95,0.04,,,0.20,WUHU216HW,2013-11-01 07:29:00,
2013-11-01 03:44:00,55.6,54.2,29.38,SW,235,1.5,3.4,95,0.03,,,0.21,WUHU216HW,2013-11-01 07:44:00,
2013-11-01 03:59:00,55.6,54.2,29.37,West,273,1.5,3.4,95,0.03,,,0.22,WUHU216HW,2013-11-01 07:59:00,
2013-11-01 04:14:00,55.6,54.2,29.35,WSW,244,1.6,4.7,95,0.05,,,0.24,WUHU216HW,2013-11-01 08:14:00,
2013-11-01 04:29:00,55.6,54.2,29.35,West,267,1.8,3.8,95,0.05,,,0.25,WUHU216HW,2013-11-01 08:29:00,
2013-11-01 04:44:00,55.4,54.3,29.34,West,279,2.0,3.8,96,0.04,,,0.25,WUHU216HW,2013-11-01 08:44:00,
2013-11-01 04:59:00,55.6,54.5,29.33,WNW,282,1.5,4.7,96,0.04,,,0.26,WUHU216HW,2013-11-01 08:59:00,
2013-11-01 05:14:00,55.8,54.6,29.33,WSW,240,1.3,4.3,96,0.07,,,0.31,WUHU216HW,2013-11-01 09:14:00,
2013-11-01 05:29:00,56.2,55.0,29.32,SW,225,2.0,6.0,96,0.06,,,0.31,WUHU216HW,2013-11-01 09:29:00,
2013-11-01 05:44:00,56.3,55.2,29.32,West,261,2.7,5.6,96,0.08,,,0.33,WUHU216HW,2013-11-01 09:44:00,
2013-11-01 05:59:00,56.5,55.4,29.32,WSW,254,2.9,5.4,96,0.07,,,0.33,WUHU216HW,2013-11-01 09:59:00,
2013-11-01 06:14:00,56.9,55.7,29.30,SW,234,2.7,5.4,96,0.02,,,0.33,WUHU216HW,2013-11-01 10:14:00,
2013-11-01 06:29:00,57.2,56.1,29.30,SW,218,2.2,5.6,96,0.04,,,0.35,WUHU216HW,2013-11-01 10:29:00,
2013-11-01 06:44:00,57.2,56.1,29.27,WSW,248,2.3,5.1,96,0.02,,,0.35,WUHU216HW,2013-11-01 10:44:00,
2013-11-01 06:59:00,57.4,56.3,29.27,WSW,258,3.3,6.9,96,0.03,,,0.36,WUHU216HW,2013-11-01 10:59:00,
2013-11-01 07:14:00,57.6,56.4,29.27,WSW,256,3.5,6.9,96,0.05,,,0.38,WUHU216HW,2013-11-01 11:14:00,
2013-11-01 07:29:00,58.0,56.8,29.27,West,273,2.9,6.3,96,0.05,,,0.40,WUHU216HW,2013-11-01 11:29:00,
2013-11-01 07:44:00,58.1,57.0,29.26,West,263,2.8,5.4,96,0.07,,,0.42,WUHU216HW,2013-11-01 11:44:00,
2013-11-01 07:59:00,58.3,57.2,29.26,WSW,254,2.7,4.7,96,0.07,,,0.43,WUHU216HW,2013-11-01 11:59:00,
2013-11-01 08:14:00,58.7,57.5,29.26,West,263,2.7,5.4,96,0.06,,,0.44,WUHU216HW,2013-11-01 12:14:00,
2013-11-01 08:29:00,58.9,57.7,29.26,West,260,3.1,7.2,96,0.05,,,0.45,WUHU216HW,2013-11-01 12:29:00,
2013-11-01 08:44:00,59.2,58.1,29.25,WSW,245,2.9,6.5,96,0.04,,,0.46,WUHU216HW,2013-11-01 12:44:00,
2013-11-01 08:59:00,59.4,58.2,29.25,WSW,237,3.0,6.9,96,0.05,,,0.48,WUHU216HW,2013-11-01 12:59:00,
2013-11-01 09:14:00,59.8,58.6,29.24,WSW,251,3.0,6.3,96,0.06,,,0.50,WUHU216HW,2013-11-01 13:14:00,
2013-11-01 09:29:00,59.9,58.8,29.24,SW,226,3.9,7.8,96,0.06,,,0.51,WUHU216HW,2013-11-01 13:29:00,
2013-11-01 09:44:00,60.1,59.0,29.22,WSW,245,4.0,7.6,96,0.05,,,0.51,WUHU216HW,2013-11-01 13:44:00,
2013-11-01 09:59:00,60.7,59.8,29.22,SW,226,4.2,12.3,97,0.03,,,0.51,WUHU216HW,2013-11-01 13:59:00,
2013-11-01 10:14:00,60.8,59.9,29.21,SW,219,3.8,8.7,97,0.01,,,0.51,WUHU216HW,2013-11-01 14:14:00,
2013-11-01 10:29:00,60.8,59.9,29.19,WSW,253,3.7,7.4,97,0.00,,,0.51,WUHU216HW,2013-11-01 14:29:00,
2013-11-01 10:44:00,61.2,60.3,29.18,WSW,248,3.4,9.2,97,0.01,,,0.52,WUHU216HW,2013-11-01 14:44:00,
2013-11-01 10:59:00,61.4,60.5,29.18,SW,235,3.4,7.6,97,0.01,,,0.52,WUHU216HW,2013-11-01 14:59:00,
2013-11-01 11:14:00,61.7,60.6,29.17,SW,219,4.0,8.5,96,0.02,,,0.53,WUHU216HW,2013-11-01 15:14:00,
2013-11-01 11:29:00,62.1,60.9,29.16,SSW,201,4.6,10.5,96,0.02,,,0.53,WUHU216HW,2013-11-01 15:29:00,
2013-11-01 11:44:00,62.3,61.1,29.15,South,189,4.3,8.9,96,0.06,,,0.58,WUHU216HW,2013-11-01 15:44:00,
2013-11-01 11:59:00,62.1,60.9,29.17,SSW,203,3.7,8.3,96,0.15,,,0.67,WUHU216HW,2013-11-01 15:59:00,
2013-11-01 12:14:00,61.9,60.8,29.19,SSE,164,5.1,8.3,96,0.21,,,0.74,WUHU216HW,2013-11-01 16:14:00,
2013-11-01 12:29:00,60.5,58.5,29.19,ESE,111,5.0,8.5,93,0.21,,,0.74,WUHU216HW,2013-11-01 16:29:00,
2013-11-01 12:44:00,59.9,58.0,29.18,SSE,168,3.6,6.3,93,0.17,,,0.75,WUHU216HW,2013-11-01 16:44:00,
2013-11-01 12:59:00,59.2,57.3,29.15,South,171,2.2,4.9,93,0.09,,,0.76,WUHU216HW,2013-11-01 16:59:00,
2013-11-01 13:14:00,58.9,56.0,29.15,SSW,205,4.2,15.0,90,0.03,,,0.77,WUHU216HW,2013-11-01 17:14:00,
2013-11-01 13:29:00,58.7,55.4,29.14,SSW,192,3.8,8.5,89,0.03,,,0.77,WUHU216HW,2013-11-01 17:29:00,
2013-11-01 13:44:00,59.9,55.8,29.16,South,182,5.2,12.1,86,0.02,,,0.77,WUHU216HW,2013-11-01 17:44:00,
2013-11-01 13:59:00,60.8,55.7,29.14,South,171,5.4,12.1,83,0.01,,,0.77,WUHU216HW,2013-11-01 17:59:00,
2013-11-01 14:14:00,62.1,56.2,29.16,SSE,163,4.7,11.2,81,0.00,,,0.77,WUHU216HW,2013-11-01 18:14:00,
2013-11-01 14:29:00,61.9,55.0,29.15,SSW,192,5.0,9.6,78,0.00,,,0.77,WUHU216HW,2013-11-01 18:29:00,
2013-11-01 14:44:00,62.1,54.8,29.14,SSE,168,4.4,9.2,77,0.00,,,0.77,WUHU216HW,2013-11-01 18:44:00,
2013-11-01 14:59:00,62.3,54.5,29.14,South,179,4.4,9.4,76,0.00,,,0.77,WUHU216HW,2013-11-01 18:59:00,
2013-11-01 15:14:00,61.9,54.3,29.14,SW,215,2.7,6.0,76,0.00,,,0.77,WUHU216HW,2013-11-01 19:14:00,
2013-11-01 15:29:00,62.3,54.5,29.15,SW,223,3.2,9.2,76,0.00,,,0.77,WUHU216HW,2013-11-01 19:29:00,
2013-11-01 15:44:00,62.6,54.9,29.15,SSW,206,2.9,6.0,76,0.00,,,0.77,WUHU216HW,2013-11-01 19:44:00,
2013-11-01 15:59:00,63.0,54.9,29.16,South,188,3.6,9.2,75,0.00,,,0.77,WUHU216HW,2013-11-01 19:59:00,
2013-11-01 16:14:00,63.2,52.8,29.17,SSW,197,4.6,11.2,69,0.00,,,0.77,WUHU216HW,2013-11-01 20:14:00,
2013-11-01 16:29:00,63.4,53.0,29.17,SSW,197,4.0,8.9,69,0.00,,,0.77,WUHU216HW,2013-11-01 20:29:00,
2013-11-01 16:44:00,63.0,53.1,29.18,WSW,255,3.0,6.3,70,0.00,,,0.77,WUHU216HW,2013-11-01 20:44:00,
2013-11-01 16:59:00,62.8,53.3,29.18,South,185,2.8,5.1,71,0.00,,,0.77,WUHU216HW,2013-11-01 20:59:00,
2013-11-01 17:14:00,62.8,52.1,29.19,SSW,211,3.5,10.1,68,0.00,,,0.77,WUHU216HW,2013-11-01 21:14:00,
2013-11-01 17:29:00,62.8,52.1,29.19,SSW,193,3.0,6.5,68,0.00,,,0.77,WUHU216HW,2013-11-01 21:29:00,
2013-11-01 17:44:00,62.3,52.0,29.20,SSW,195,1.9,5.4,69,0.00,,,0.77,WUHU216HW,2013-11-01 21:44:00,
2013-11-01 17:59:00,62.5,51.8,29.21,SSW,200,3.1,8.7,68,0.00,,,0.77,WUHU216HW,2013-11-01 21:59:00,
2013-11-01 18:14:00,62.3,51.6,29.20,SSW,195,3.3,6.5,68,0.00,,,0.77,WUHU216HW,2013-11-01 22:14:00,
2013-11-01 18:29:00,62.3,50.8,29.20,South,172,3.3,7.2,66,0.00,,,0.77,WUHU216HW,2013-11-01 22:29:00,
2013-11-01 18:44:00,62.3,50.3,29.22,SSE,151,3.1,6.3,65,0.00,,,0.77,WUHU216HW,2013-11-01 22:44:00,
2013-11-01 18:59:00,61.6,49.7,29.22,ESE,120,2.3,4.9,65,0.00,,,0.77,WUHU216HW,2013-11-01 22:59:00,
2013-11-01 19:14:00,61.2,48.2,29.23,SE,134,3.5,10.7,62,0.00,,,0.77,WUHU216HW,2013-11-01 23:14:00,
2013-11-01 19:29:00,61.9,48.8,29.23,ESE,120,4.2,10.3,62,0.00,,,0.77,WUHU216HW,2013-11-01 23:29:00,
2013-11-01 19:44:00,60.7,47.6,29.24,ESE,103,2.6,6.0,62,0.00,,,0.77,WUHU216HW,2013-11-01 23:44:00,
2013-11-01 19:59:00,60.1,47.5,29.26,East,94,2.6,5.8,63,0.00,,,0.77,WUHU216HW,2013-11-01 23:59:00,
2013-11-01 20:14:00,60.3,45.0,29.27,SSE,152,3.0,7.4,57,0.00,,,0.77,WUHU216HW,2013-11-02 00:14:00,
2013-11-01 20:29:00,60.8,45.6,29.28,ESE,105,4.2,7.4,57,0.00,,,0.77,WUHU216HW,2013-11-02 00:29:00,
2013-11-01 20:44:00,60.7,46.4,29.29,East,101,3.5,7.6,59,0.00,,,0.77,WUHU216HW,2013-11-02 00:44:00,
2013-11-01 20:59:00,60.1,45.3,29.30,East,80,3.4,6.3,58,0.00,,,0.77,WUHU216HW,2013-11-02 00:59:00,
2013-11-01 21:14:00,59.8,44.9,29.31,NE,44,3.2,6.0,58,0.00,,,0.77,WUHU216HW,2013-11-02 01:14:00,
2013-11-01 21:29:00,59.2,45.4,29.32,East,86,3.2,5.4,60,0.00,,,0.77,WUHU216HW,2013-11-02 01:29:00,
2013-11-01 21:44:00,58.3,44.1,29.34,NE,52,2.4,7.6,59,0.00,,,0.77,WUHU216HW,2013-11-02 01:44:00,
2013-11-01 21:59:00,58.1,43.5,29.35,SSW,213,4.5,9.8,58,0.00,,,0.77,WUHU216HW,2013-11-02 01:59:00,
2013-11-01 22:14:00,57.8,43.6,29.35,NE,46,2.9,6.9,59,0.00,,,0.77,WUHU216HW,2013-11-02 02:14:00,
2013-11-01 22:29:00,57.2,43.9,29.36,NE,54,3.3,6.7,61,0.00,,,0.77,WUHU216HW,2013-11-02 02:29:00,
2013-11-01 22:44:00,56.5,43.2,29.36,NNE,27,2.6,10.3,61,0.00,,,0.77,WUHU216HW,2013-11-02 02:44:00,
2013-11-01 22:59:00,56.3,43.5,29.37,NE,38,2.3,7.6,62,0.00,,,0.77,WUHU216HW,2013-11-02 02:59:00,
2013-11-01 23:14:00,56.2,43.3,29.37,East,82,2.1,6.3,62,0.00,,,0.77,WUHU216HW,2013-11-02 03:14:00,
2013-11-01 23:29:00,55.4,43.0,29.38,ENE,66,1.8,4.7,63,0.00,,,0.77,WUHU216HW,2013-11-02 03:29:00,
2013-11-01 23:44:00,55.4,43.0,29.38,WNW,295,1.9,6.0,63,0.00,,,0.77,WUHU216HW,2013-11-02 03:44:00,
2013-11-01 23:59:00,55.1,42.3,29.38,SW,227,1.8,4.9,62,0.00,,,0.77,WUHU216HW,2013-11-02 03:59:00,